createdAt,value
2016-04-06T00:00:41.085Z,948.6
2016-04-06T00:01:41.041Z,948.63
2016-04-06T00:02:40.982Z,948.61
2016-04-06T00:03:40.937Z,948.6
2016-04-06T00:04:40.893Z,948.65
2016-04-06T00:05:40.832Z,948.64
2016-04-06T00:06:40.789Z,948.66
2016-04-06T00:07:40.729Z,948.65
2016-04-06T00:08:40.700Z,948.64
2016-04-06T00:09:40.640Z,948.64
2016-04-06T00:10:40.580Z,948.71
2016-04-06T00:11:40.520Z,948.71
2016-04-06T00:12:40.476Z,948.73
2016-04-06T00:13:40.416Z,948.75
2016-04-06T00:14:40.372Z,948.74
2016-04-06T00:15:40.328Z,948.77
2016-04-06T00:16:40.268Z,948.83
2016-04-06T00:17:40.224Z,948.79
2016-04-06T00:18:40.180Z,948.77
2016-04-06T00:19:40.120Z,948.85
2016-04-06T00:20:40.076Z,948.84
2016-04-06T00:21:40.016Z,948.84
2016-04-06T00:22:39.957Z,948.84
2016-04-06T00:23:39.913Z,948.85
2016-04-06T00:24:39.852Z,948.85
2016-04-06T00:25:39.808Z,948.86
2016-04-06T00:26:39.763Z,948.88
2016-04-06T00:27:39.735Z,948.84
2016-04-06T00:28:39.676Z,948.84
2016-04-06T00:29:39.616Z,948.89
2016-04-06T00:30:39.557Z,948.89
2016-04-06T00:31:39.497Z,948.87
2016-04-06T00:32:39.452Z,948.84
2016-04-06T00:33:39.408Z,948.85
2016-04-06T00:34:39.364Z,948.84
2016-04-06T00:35:39.288Z,948.86
2016-04-06T00:36:39.259Z,948.87
2016-04-06T00:37:39.200Z,948.91
2016-04-06T00:38:39.140Z,948.9
2016-04-06T00:39:39.096Z,948.91
2016-04-06T00:40:39.037Z,948.86
2016-04-06T00:41:38.992Z,948.87
2016-04-06T00:42:38.932Z,948.86
2016-04-06T00:43:38.888Z,948.82
2016-04-06T00:44:38.844Z,948.83
2016-04-06T00:45:38.784Z,948.81
2016-04-06T00:46:38.739Z,948.82
2016-04-06T00:47:38.696Z,948.8
2016-04-06T00:48:38.652Z,948.78
2016-04-06T00:49:38.576Z,948.82
2016-04-06T00:50:38.547Z,948.87
2016-04-06T00:51:38.488Z,948.88
2016-04-06T00:52:38.428Z,948.93
2016-04-06T00:53:38.383Z,948.95
2016-04-06T00:54:38.339Z,948.91
2016-04-06T00:55:38.279Z,948.91
2016-04-06T00:56:38.220Z,948.94
2016-04-06T00:57:38.176Z,948.91
2016-04-06T00:58:38.132Z,949.02
2016-04-06T00:59:38.072Z,949
2016-04-06T01:00:38.043Z,949.02
2016-04-06T01:01:37.968Z,949.04
2016-04-06T01:02:37.924Z,949.03
2016-04-06T01:03:37.879Z,949
2016-04-06T01:04:37.820Z,949
2016-04-06T01:05:37.775Z,948.99
2016-04-06T01:06:37.715Z,948.99
2016-04-06T01:07:37.671Z,949.01
2016-04-06T01:08:37.612Z,948.97
2016-04-06T01:09:37.568Z,948.98
2016-04-06T01:10:37.507Z,948.97
2016-04-06T01:11:37.464Z,948.97
2016-04-06T01:12:37.403Z,948.96
2016-04-06T01:13:37.375Z,948.96
2016-04-06T01:14:37.315Z,948.93
2016-04-06T01:15:37.271Z,948.95
2016-04-06T01:16:37.212Z,948.95
2016-04-06T01:17:37.151Z,948.94
2016-04-06T01:18:37.108Z,948.91
2016-04-06T01:19:37.063Z,948.94
2016-04-06T01:20:37.019Z,948.96
2016-04-06T01:21:36.959Z,948.95
2016-04-06T01:22:36.914Z,948.96
2016-04-06T01:23:36.855Z,948.94
2016-04-06T01:24:36.794Z,948.92
2016-04-06T01:25:36.752Z,948.93
2016-04-06T01:26:36.691Z,948.93
2016-04-06T01:27:36.647Z,948.94
2016-04-06T01:28:36.603Z,948.94
2016-04-06T01:29:36.543Z,948.96
2016-04-06T01:30:36.499Z,948.94
2016-04-06T01:31:36.438Z,948.95
2016-04-06T01:32:36.395Z,948.89
2016-04-06T01:33:36.334Z,948.94
2016-04-06T01:34:36.290Z,948.94
2016-04-06T01:35:36.231Z,948.9
2016-04-06T01:36:36.187Z,948.89
2016-04-06T01:37:36.143Z,948.89
2016-04-06T01:38:36.083Z,948.89
2016-04-06T01:39:36.039Z,948.85
2016-04-06T01:40:35.979Z,948.84
2016-04-06T01:41:35.934Z,948.82
2016-04-06T01:42:35.875Z,948.81
2016-04-06T01:43:35.831Z,948.85
2016-04-06T01:44:35.787Z,948.85
2016-04-06T01:45:35.743Z,948.82
2016-04-06T01:46:35.683Z,948.82
2016-04-06T01:47:35.639Z,948.84
2016-04-06T01:48:35.578Z,948.89
2016-04-06T01:49:35.519Z,948.89
2016-04-06T01:50:35.474Z,948.9
2016-04-06T01:51:35.414Z,948.92
2016-04-06T01:52:35.370Z,948.95
2016-04-06T01:53:35.326Z,948.95
2016-04-06T01:54:35.267Z,948.93
2016-04-06T01:55:35.222Z,948.93
2016-04-06T01:56:35.178Z,948.92
2016-04-06T01:57:35.134Z,948.93
2016-04-06T01:58:35.074Z,948.92
2016-04-06T01:59:35.014Z,948.93
2016-04-06T02:00:34.970Z,948.89
2016-04-06T02:01:34.941Z,948.84
2016-04-06T02:02:34.865Z,948.88
2016-04-06T02:03:34.806Z,948.85
2016-04-06T02:04:34.762Z,948.83
2016-04-06T02:05:34.702Z,948.84
2016-04-06T02:06:34.658Z,948.87
2016-04-06T02:07:34.598Z,948.88
2016-04-06T02:08:34.562Z,948.86
2016-04-06T02:09:34.518Z,948.82
2016-04-06T02:10:34.443Z,948.83
2016-04-06T02:11:34.399Z,948.84
2016-04-06T02:12:34.354Z,948.81
2016-04-06T02:13:34.295Z,948.84
2016-04-06T02:14:34.251Z,948.83
2016-04-06T02:15:34.191Z,948.88
2016-04-06T02:16:34.147Z,948.89
2016-04-06T02:17:34.087Z,948.87
2016-04-06T02:18:34.043Z,948.91
2016-04-06T02:19:33.998Z,948.85
2016-04-06T02:20:33.939Z,948.89
2016-04-06T02:21:33.895Z,948.85
2016-04-06T02:22:33.835Z,948.9
2016-04-06T02:23:33.791Z,948.88
2016-04-06T02:24:33.731Z,948.94
2016-04-06T02:25:33.687Z,948.89
2016-04-06T02:26:33.626Z,948.92
2016-04-06T02:27:33.583Z,948.89
2016-04-06T02:28:33.522Z,948.92
2016-04-06T02:29:33.494Z,948.94
2016-04-06T02:30:33.434Z,948.93
2016-04-06T02:31:33.375Z,948.96
2016-04-06T02:32:33.331Z,948.92
2016-04-06T02:33:33.271Z,948.96
2016-04-06T02:34:33.227Z,948.98
2016-04-06T02:35:33.167Z,949
2016-04-06T02:36:33.122Z,949.02
2016-04-06T02:37:33.078Z,949
2016-04-06T02:38:33.019Z,949.04
2016-04-06T02:39:32.974Z,948.99
2016-04-06T02:40:32.914Z,948.98
2016-04-06T02:41:32.871Z,948.99
2016-04-06T02:42:32.810Z,949
2016-04-06T02:43:32.766Z,948.98
2016-04-06T02:44:32.707Z,949
2016-04-06T02:45:32.663Z,949.02
2016-04-06T02:46:32.618Z,949.01
2016-04-06T02:47:32.558Z,949.02
2016-04-06T02:48:32.498Z,949.02
2016-04-06T02:49:32.454Z,949.05
2016-04-06T02:50:32.395Z,949.07
2016-04-06T02:51:32.351Z,949.04
2016-04-06T02:52:32.307Z,949.04
2016-04-06T02:53:32.246Z,949.04
2016-04-06T02:54:32.202Z,949.03
2016-04-06T02:55:32.142Z,949.08
2016-04-06T02:56:32.098Z,949.04
2016-04-06T02:57:32.039Z,949.03
2016-04-06T02:58:31.994Z,949.1
2016-04-06T02:59:31.934Z,949.07
2016-04-06T03:00:31.890Z,949.07
2016-04-06T03:01:31.846Z,949.08
2016-04-06T03:02:31.787Z,949.07
2016-04-06T03:03:31.742Z,949.08
2016-04-06T03:04:31.683Z,949.08
2016-04-06T03:05:31.639Z,949.09
2016-04-06T03:06:31.594Z,949.06
2016-04-06T03:07:31.534Z,949.09
2016-04-06T03:08:31.489Z,949.08
2016-04-06T03:09:31.430Z,949.12
2016-04-06T03:10:31.369Z,949.11
2016-04-06T03:11:31.326Z,949.14
2016-04-06T03:12:31.282Z,949.17
2016-04-06T03:13:31.222Z,949.17
2016-04-06T03:14:31.163Z,949.17
2016-04-06T03:15:31.118Z,949.16
2016-04-06T03:16:31.074Z,949.15
2016-04-06T03:17:31.029Z,949.12
2016-04-06T03:18:30.970Z,949.1
2016-04-06T03:19:30.910Z,949.12
2016-04-06T03:20:30.866Z,949.16
2016-04-06T03:21:30.807Z,949.16
2016-04-06T03:22:30.777Z,949.15
2016-04-06T03:23:30.718Z,949.11
2016-04-06T03:24:30.861Z,949.11
2016-04-06T03:25:30.614Z,949.15
2016-04-06T03:26:30.553Z,949.13
2016-04-06T03:27:30.525Z,949.12
2016-04-06T03:28:30.450Z,949.15
2016-04-06T03:29:30.405Z,949.14
2016-04-06T03:30:30.346Z,949.17
2016-04-06T03:31:30.301Z,949.13
2016-04-06T03:32:30.258Z,949.12
2016-04-06T03:33:30.198Z,949.15
2016-04-06T03:34:30.154Z,949.15
2016-04-06T03:35:30.109Z,949.14
2016-04-06T03:36:30.065Z,949.12
2016-04-06T03:37:30.005Z,949.05
2016-04-06T03:38:29.945Z,949.03
2016-04-06T03:39:29.901Z,949.06
2016-04-06T03:40:29.841Z,949
2016-04-06T03:41:29.797Z,948.99
2016-04-06T03:42:29.753Z,949.02
2016-04-06T03:43:29.694Z,949.03
2016-04-06T03:44:29.633Z,949.01
2016-04-06T03:45:29.589Z,949
2016-04-06T03:46:29.545Z,949.01
2016-04-06T03:47:29.485Z,949.03
2016-04-06T03:48:29.426Z,949.02
2016-04-06T03:49:29.382Z,949.07
2016-04-06T03:50:29.321Z,949.09
2016-04-06T03:51:29.293Z,949.09
2016-04-06T03:52:29.233Z,949.08
2016-04-06T03:53:29.173Z,949.14
2016-04-06T03:54:29.129Z,949.15
2016-04-06T03:55:29.070Z,949.19
2016-04-06T03:56:29.025Z,949.21
2016-04-06T03:57:28.965Z,949.21
2016-04-06T03:58:28.920Z,949.18
2016-04-06T03:59:28.877Z,949.23
2016-04-06T04:00:28.817Z,949.23
2016-04-06T04:01:28.757Z,949.25
2016-04-06T04:02:28.714Z,949.23
2016-04-06T04:03:28.669Z,949.3
2016-04-06T04:04:28.609Z,949.24
2016-04-06T04:05:28.564Z,949.25
2016-04-06T04:06:28.505Z,949.26
2016-04-06T04:07:28.461Z,949.27
2016-04-06T04:08:28.401Z,949.29
2016-04-06T04:09:28.358Z,949.32
2016-04-06T04:10:28.297Z,949.29
2016-04-06T04:11:28.253Z,949.32
2016-04-06T04:12:28.193Z,949.32
2016-04-06T04:13:28.149Z,949.31
2016-04-06T04:14:28.089Z,949.31
2016-04-06T04:15:28.045Z,949.32
2016-04-06T04:16:28.001Z,949.32
2016-04-06T04:17:27.941Z,949.29
2016-04-06T04:18:27.897Z,949.25
2016-04-06T04:19:27.946Z,949.22
2016-04-06T04:20:27.793Z,949.25
2016-04-06T04:21:27.733Z,949.26
2016-04-06T04:22:27.688Z,949.31
2016-04-06T04:23:27.629Z,949.33
2016-04-06T04:24:27.585Z,949.35
2016-04-06T04:25:27.525Z,949.39
2016-04-06T04:26:27.481Z,949.35
2016-04-06T04:27:27.437Z,949.4
2016-04-06T04:28:27.392Z,949.4
2016-04-06T04:29:27.333Z,949.42
2016-04-06T04:30:27.273Z,949.38
2016-04-06T04:31:27.229Z,949.37
2016-04-06T04:32:27.169Z,949.37
2016-04-06T04:33:27.125Z,949.37
2016-04-06T04:34:27.064Z,949.36
2016-04-06T04:35:27.020Z,949.39
2016-04-06T04:36:26.961Z,949.42
2016-04-06T04:37:26.916Z,949.38
2016-04-06T04:38:26.856Z,949.38
2016-04-06T04:39:26.813Z,949.4
2016-04-06T04:40:26.769Z,949.42
2016-04-06T04:41:26.708Z,949.44
2016-04-06T04:42:26.664Z,949.45
2016-04-06T04:43:26.605Z,949.45
2016-04-06T04:44:26.560Z,949.49
2016-04-06T04:45:26.500Z,949.53
2016-04-06T04:46:26.472Z,949.54
2016-04-06T04:47:26.412Z,949.54
2016-04-06T04:48:26.353Z,949.52
2016-04-06T04:49:26.293Z,949.53
2016-04-06T04:50:26.248Z,949.59
2016-04-06T04:51:26.188Z,949.57
2016-04-06T04:52:26.144Z,949.59
2016-04-06T04:53:26.100Z,949.56
2016-04-06T04:54:26.041Z,949.57
2016-04-06T04:55:25.996Z,949.6
2016-04-06T04:56:25.937Z,949.63
2016-04-06T04:57:25.893Z,949.63
2016-04-06T04:58:25.832Z,949.62
2016-04-06T04:59:25.788Z,949.65
2016-04-06T05:00:25.729Z,949.61
2016-04-06T05:01:25.684Z,949.62
2016-04-06T05:02:25.625Z,949.63
2016-04-06T05:03:25.580Z,949.63
2016-04-06T05:04:25.520Z,949.64
2016-04-06T05:05:25.475Z,949.64
2016-04-06T05:06:25.417Z,949.67
2016-04-06T05:07:25.373Z,949.65
2016-04-06T05:08:25.672Z,949.64
2016-04-06T05:09:25.269Z,949.62
2016-04-06T05:10:25.209Z,949.62
2016-04-06T05:11:25.164Z,949.61
2016-04-06T05:12:25.105Z,949.63
2016-04-06T05:13:25.061Z,949.62
2016-04-06T05:14:25.016Z,949.63
2016-04-06T05:15:24.956Z,949.65
2016-04-06T05:16:24.896Z,949.63
2016-04-06T05:17:24.852Z,949.67
2016-04-06T05:18:24.808Z,949.68
2016-04-06T05:19:24.749Z,949.7
2016-04-06T05:20:24.704Z,949.74
2016-04-06T05:21:24.644Z,949.73
2016-04-06T05:22:24.600Z,949.76
2016-04-06T05:23:24.540Z,949.74
2016-04-06T05:24:24.496Z,949.75
2016-04-06T05:25:24.437Z,949.72
2016-04-06T05:26:24.392Z,949.76
2016-04-06T05:27:24.348Z,949.72
2016-04-06T05:28:24.299Z,949.75
2016-04-06T05:29:24.239Z,949.75
2016-04-06T05:30:24.195Z,949.79
2016-04-06T05:31:24.135Z,949.8
2016-04-06T05:32:24.091Z,949.82
2016-04-06T05:33:24.031Z,949.81
2016-04-06T05:34:23.971Z,949.8
2016-04-06T05:35:23.927Z,949.85
2016-04-06T05:36:23.884Z,949.89
2016-04-06T05:37:23.839Z,949.87
2016-04-06T05:38:23.778Z,949.88
2016-04-06T05:39:23.735Z,949.93
2016-04-06T05:40:24.190Z,949.92
2016-04-06T05:41:23.615Z,949.92
2016-04-06T05:42:23.571Z,949.89
2016-04-06T05:43:23.527Z,949.91
2016-04-06T05:44:23.467Z,949.96
2016-04-06T05:45:23.408Z,949.95
2016-04-06T05:46:23.363Z,949.99
2016-04-06T05:47:23.319Z,950.02
2016-04-06T05:48:23.258Z,950
2016-04-06T05:49:23.214Z,949.99
2016-04-06T05:50:23.155Z,950.01
2016-04-06T05:51:23.110Z,950
2016-04-06T05:52:23.066Z,949.95
2016-04-06T05:53:23.007Z,950.01
2016-04-06T05:54:22.947Z,950.01
2016-04-06T05:55:22.902Z,950.01
2016-04-06T05:56:22.843Z,950.04
2016-04-06T05:57:22.798Z,950.06
2016-04-06T05:58:22.739Z,950.05
2016-04-06T05:59:22.696Z,950.08
2016-04-06T06:00:22.650Z,950.08
2016-04-06T06:01:22.591Z,950.08
2016-04-06T06:02:22.546Z,950.12
2016-04-06T06:03:22.513Z,950.08
2016-04-06T06:04:22.499Z,950.06
2016-04-06T06:05:22.484Z,950.03
2016-04-06T06:06:22.486Z,950.08
2016-04-06T06:07:22.472Z,950.06
2016-04-06T06:08:22.465Z,950.08
2016-04-06T06:09:22.422Z,950.07
2016-04-06T06:10:22.378Z,950.09
2016-04-06T06:11:22.365Z,950.11
2016-04-06T06:12:22.322Z,950.08
2016-04-06T06:13:22.276Z,950.11
2016-04-06T06:14:22.237Z,950.12
2016-04-06T06:15:22.184Z,950.08
2016-04-06T06:16:22.145Z,950.09
2016-04-06T06:17:22.106Z,950.09
2016-04-06T06:18:22.051Z,950.08
2016-04-06T06:19:21.993Z,950.08
2016-04-06T06:20:21.951Z,950.11
2016-04-06T06:21:21.893Z,950.13
2016-04-06T06:22:21.852Z,950.15
2016-04-06T06:23:21.794Z,950.09
2016-04-06T06:24:21.767Z,950.12
2016-04-06T06:25:21.693Z,950.14
2016-04-06T06:26:21.649Z,950.15
2016-04-06T06:27:21.589Z,950.11
2016-04-06T06:28:21.546Z,950.09
2016-04-06T06:29:21.503Z,950.1
2016-04-06T06:30:21.443Z,950.08
2016-04-06T06:31:21.399Z,950.15
2016-04-06T06:32:21.340Z,950.13
2016-04-06T06:33:21.280Z,950.13
2016-04-06T06:34:21.235Z,950.12
2016-04-06T06:35:21.191Z,950.13
2016-04-06T06:36:21.132Z,950.1
2016-04-06T06:37:21.088Z,950.12
2016-04-06T06:38:21.043Z,950.13
2016-04-06T06:39:20.984Z,950.14
2016-04-06T06:40:20.955Z,950.13
2016-04-06T06:41:20.877Z,950.17
2016-04-06T06:42:20.833Z,950.18
2016-04-06T06:43:20.773Z,950.17
2016-04-06T06:44:20.729Z,950.15
2016-04-06T06:45:20.670Z,950.21
2016-04-06T06:46:20.626Z,950.12
2016-04-06T06:47:20.565Z,950.19
2016-04-06T06:48:20.520Z,950.19
2016-04-06T06:49:20.461Z,950.19
2016-04-06T06:50:20.401Z,950.14
2016-04-06T06:51:20.357Z,950.2
2016-04-06T06:52:20.297Z,950.19
2016-04-06T06:53:20.253Z,950.17
2016-04-06T06:54:20.194Z,950.24
2016-04-06T06:55:20.149Z,950.24
2016-04-06T06:56:20.105Z,950.25
2016-04-06T06:57:20.045Z,950.21
2016-04-06T06:58:20.001Z,950.24
2016-04-06T06:59:19.941Z,950.23
2016-04-06T07:00:19.880Z,950.21
2016-04-06T07:01:19.837Z,950.18
2016-04-06T07:02:19.794Z,950.19
2016-04-06T07:03:19.733Z,950.21
2016-04-06T07:04:19.689Z,950.24
2016-04-06T07:05:19.629Z,950.25
2016-04-06T07:06:19.585Z,950.28
2016-04-06T07:07:19.525Z,950.22
2016-04-06T07:08:19.481Z,950.26
2016-04-06T07:09:19.421Z,950.25
2016-04-06T07:10:19.377Z,950.3
2016-04-06T07:11:19.318Z,950.25
2016-04-06T07:12:19.273Z,950.34
2016-04-06T07:13:19.229Z,950.34
2016-04-06T07:14:19.168Z,950.35
2016-04-06T07:15:19.109Z,950.35
2016-04-06T07:16:19.064Z,950.31
2016-04-06T07:17:19.005Z,950.39
2016-04-06T07:18:18.976Z,950.37
2016-04-06T07:19:18.901Z,950.39
2016-04-06T07:20:18.856Z,950.4
2016-04-06T07:21:18.798Z,950.38
2016-04-06T07:22:18.769Z,950.41
2016-04-06T07:23:18.709Z,950.39
2016-04-06T07:24:18.665Z,950.4
2016-04-06T07:25:18.590Z,950.41
2016-04-06T07:26:18.545Z,950.42
2016-04-06T07:27:18.485Z,950.43
2016-04-06T07:28:18.441Z,950.47
2016-04-06T07:29:18.397Z,950.42
2016-04-06T07:30:18.336Z,950.45
2016-04-06T07:31:18.293Z,950.52
2016-04-06T07:32:18.249Z,950.5
2016-04-06T07:33:18.188Z,950.55
2016-04-06T07:34:18.130Z,950.55
2016-04-06T07:35:18.100Z,950.56
2016-04-06T07:36:18.025Z,950.58
2016-04-06T07:37:17.965Z,950.61
2016-04-06T07:38:17.921Z,950.64
2016-04-06T07:39:17.877Z,950.64
2016-04-06T07:40:17.818Z,950.65
2016-04-06T07:41:17.788Z,950.64
2016-04-06T07:42:17.713Z,950.71
2016-04-06T07:43:17.654Z,950.69
2016-04-06T07:44:17.609Z,950.72
2016-04-06T07:45:17.549Z,950.71
2016-04-06T07:46:17.505Z,950.72
2016-04-06T07:47:17.462Z,950.73
2016-04-06T07:48:17.401Z,950.73
2016-04-06T07:49:17.342Z,950.79
2016-04-06T07:50:17.345Z,950.76
2016-04-06T07:51:17.253Z,950.77
2016-04-06T07:52:17.193Z,950.79
2016-04-06T07:53:17.148Z,950.82
2016-04-06T07:54:17.089Z,950.83
2016-04-06T07:55:17.029Z,950.78
2016-04-06T07:56:16.985Z,950.81
2016-04-06T07:57:16.925Z,950.83
2016-04-06T07:58:16.881Z,950.84
2016-04-06T07:59:16.837Z,950.84
2016-04-06T08:00:16.777Z,950.84
2016-04-06T08:01:16.717Z,950.85
2016-04-06T08:02:16.672Z,950.82
2016-04-06T08:03:16.614Z,950.83
2016-04-06T08:04:16.569Z,950.79
2016-04-06T08:05:16.524Z,950.77
2016-04-06T08:06:16.465Z,950.79
2016-04-06T08:07:16.405Z,950.78
2016-04-06T08:08:16.361Z,950.79
2016-04-06T08:09:16.317Z,950.78
2016-04-06T08:10:16.257Z,950.78
2016-04-06T08:11:16.229Z,950.8
2016-04-06T08:12:16.154Z,950.79
2016-04-06T08:13:16.109Z,950.82
2016-04-06T08:14:16.065Z,950.84
2016-04-06T08:15:16.005Z,950.85
2016-04-06T08:16:15.945Z,950.86
2016-04-06T08:17:15.901Z,950.9
2016-04-06T08:18:15.840Z,950.87
2016-04-06T08:19:15.797Z,950.87
2016-04-06T08:20:15.815Z,950.84
2016-04-06T08:21:15.692Z,950.85
2016-04-06T08:22:15.648Z,950.93
2016-04-06T08:23:15.589Z,950.94
2016-04-06T08:24:15.545Z,950.95
2016-04-06T08:25:15.485Z,950.93
2016-04-06T08:26:15.441Z,950.9
2016-04-06T08:27:15.381Z,950.88
2016-04-06T08:28:15.336Z,950.88
2016-04-06T08:29:15.293Z,950.9
2016-04-06T08:30:15.233Z,950.87
2016-04-06T08:31:15.173Z,950.9
2016-04-06T08:32:15.128Z,950.89
2016-04-06T08:33:15.085Z,950.87
2016-04-06T08:34:15.025Z,950.87
2016-04-06T08:35:14.981Z,950.94
2016-04-06T08:36:14.922Z,950.9
2016-04-06T08:37:14.877Z,950.94
2016-04-06T08:38:14.816Z,950.93
2016-04-06T08:39:14.772Z,950.9
2016-04-06T08:40:14.713Z,950.88
2016-04-06T08:41:14.669Z,950.92
2016-04-06T08:42:14.609Z,950.92
2016-04-06T08:43:14.565Z,950.92
2016-04-06T08:44:14.505Z,950.96
2016-04-06T08:45:14.461Z,950.98
2016-04-06T08:46:14.416Z,950.98
2016-04-06T08:47:14.357Z,950.98
2016-04-06T08:48:14.297Z,950.98
2016-04-06T08:49:14.253Z,951
2016-04-06T08:50:14.208Z,951.01
2016-04-06T08:51:14.149Z,951.01
2016-04-06T08:52:14.104Z,950.98
2016-04-06T08:53:14.045Z,951.01
2016-04-06T08:54:14.001Z,951.01
2016-04-06T08:55:13.940Z,951.04
2016-04-06T08:56:13.897Z,951.04
2016-04-06T08:57:13.853Z,951.08
2016-04-06T08:58:13.792Z,951.03
2016-04-06T08:59:13.733Z,951.05
2016-04-06T09:00:13.688Z,951.02
2016-04-06T09:01:13.629Z,951.03
2016-04-06T09:02:13.584Z,950.97
2016-04-06T09:03:13.525Z,951.03
2016-04-06T09:04:13.496Z,951.04
2016-04-06T09:05:13.436Z,951.02
2016-04-06T09:06:13.377Z,951.02
2016-04-06T09:07:13.333Z,951.04
2016-04-06T09:08:13.272Z,951.05
2016-04-06T09:09:13.244Z,951.04
2016-04-06T09:10:13.168Z,951.02
2016-04-06T09:11:13.124Z,950.98
2016-04-06T09:12:13.065Z,951.01
2016-04-06T09:13:13.020Z,951.01
2016-04-06T09:14:12.977Z,950.98
2016-04-06T09:15:12.916Z,950.95
2016-04-06T09:16:12.871Z,951.02
2016-04-06T09:17:12.812Z,950.95
2016-04-06T09:18:12.768Z,950.96
2016-04-06T09:19:12.709Z,950.97
2016-04-06T09:20:12.664Z,950.99
2016-04-06T09:21:12.621Z,950.97
2016-04-06T09:22:12.560Z,950.95
2016-04-06T09:23:12.515Z,950.96
2016-04-06T09:24:12.457Z,950.9
2016-04-06T09:25:12.412Z,950.97
2016-04-06T09:26:12.353Z,950.95
2016-04-06T09:27:12.308Z,950.92
2016-04-06T09:28:12.264Z,950.98
2016-04-06T09:29:12.220Z,950.93
2016-04-06T09:30:12.144Z,950.98
2016-04-06T09:31:12.100Z,950.98
2016-04-06T09:32:12.040Z,951.01
2016-04-06T09:33:12.012Z,950.97
2016-04-06T09:34:11.952Z,950.96
2016-04-06T09:35:11.939Z,950.98
2016-04-06T09:36:11.848Z,950.95
2016-04-06T09:37:11.803Z,950.97
2016-04-06T09:38:11.744Z,950.99
2016-04-06T09:39:11.700Z,950.98
2016-04-06T09:40:11.640Z,951
2016-04-06T09:41:11.596Z,950.97
2016-04-06T09:42:11.541Z,950.97
2016-04-06T09:43:11.496Z,950.98
2016-04-06T09:44:11.437Z,951
2016-04-06T09:45:11.402Z,950.97
2016-04-06T09:46:11.325Z,950.96
2016-04-06T09:47:11.282Z,950.99
2016-04-06T09:48:11.222Z,950.98
2016-04-06T09:49:11.177Z,950.96
2016-04-06T09:50:11.134Z,950.94
2016-04-06T09:51:11.074Z,950.96
2016-04-06T09:52:11.030Z,950.96
2016-04-06T09:53:10.969Z,950.99
2016-04-06T09:54:10.926Z,950.96
2016-04-06T09:55:10.882Z,950.94
2016-04-06T09:56:10.821Z,950.95
2016-04-06T09:57:10.777Z,950.96
2016-04-06T09:58:10.718Z,950.96
2016-04-06T09:59:10.657Z,950.93
2016-04-06T10:00:10.613Z,950.93
2016-04-06T10:01:10.569Z,950.9
2016-04-06T10:02:10.510Z,950.93
2016-04-06T10:03:10.465Z,950.91
2016-04-06T10:04:10.406Z,950.92
2016-04-06T10:05:10.362Z,950.89
2016-04-06T10:06:10.317Z,950.86
2016-04-06T10:07:10.257Z,950.85
2016-04-06T10:08:10.214Z,950.82
2016-04-06T10:09:10.153Z,950.82
2016-04-06T10:10:10.109Z,950.79
2016-04-06T10:11:10.050Z,950.81
2016-04-06T10:12:10.005Z,950.81
2016-04-06T10:13:09.945Z,950.84
2016-04-06T10:14:09.901Z,950.86
2016-04-06T10:15:09.857Z,950.82
2016-04-06T10:16:09.797Z,950.8
2016-04-06T10:17:09.738Z,950.79
2016-04-06T10:18:09.694Z,950.8
2016-04-06T10:19:09.649Z,950.79
2016-04-06T10:20:09.589Z,950.77
2016-04-06T10:21:09.545Z,950.78
2016-04-06T10:22:09.485Z,950.79
2016-04-06T10:23:09.441Z,950.79
2016-04-06T10:24:09.382Z,950.77
2016-04-06T10:25:09.337Z,950.77
2016-04-06T10:26:09.293Z,950.74
2016-04-06T10:27:09.233Z,950.75
2016-04-06T10:28:09.189Z,950.72
2016-04-06T10:29:09.129Z,950.73
2016-04-06T10:30:09.084Z,950.72
2016-04-06T10:31:09.041Z,950.69
2016-04-06T10:32:08.981Z,950.68
2016-04-06T10:33:08.937Z,950.66
2016-04-06T10:34:08.876Z,950.66
2016-04-06T10:35:08.833Z,950.68
2016-04-06T10:36:08.773Z,950.65
2016-04-06T10:37:08.728Z,950.64
2016-04-06T10:38:08.684Z,950.66
2016-04-06T10:39:08.625Z,950.62
2016-04-06T10:40:08.565Z,950.56
2016-04-06T10:41:08.520Z,950.6
2016-04-06T10:42:08.476Z,950.66
2016-04-06T10:43:08.417Z,950.63
2016-04-06T10:44:08.372Z,950.62
2016-04-06T10:45:08.313Z,950.63
2016-04-06T10:46:08.269Z,950.64
2016-04-06T10:47:08.209Z,950.61
2016-04-06T10:48:08.165Z,950.59
2016-04-06T10:49:08.105Z,950.62
2016-04-06T10:50:08.060Z,950.61
2016-04-06T10:51:08.016Z,950.61
2016-04-06T10:52:07.957Z,950.58
2016-04-06T10:53:07.913Z,950.6
2016-04-06T10:54:07.868Z,950.54
2016-04-06T10:55:07.808Z,950.5
2016-04-06T10:56:07.764Z,950.44
2016-04-06T10:57:07.766Z,950.51
2016-04-06T10:58:07.660Z,950.43
2016-04-06T10:59:07.601Z,950.45
2016-04-06T11:00:07.556Z,950.46
2016-04-06T11:01:07.496Z,950.44
2016-04-06T11:02:07.451Z,950.46
2016-04-06T11:03:07.408Z,950.46
2016-04-06T11:04:07.348Z,950.47
2016-04-06T11:05:07.303Z,950.45
2016-04-06T11:06:07.244Z,950.49
2016-04-06T11:07:07.201Z,950.53
2016-04-06T11:08:07.140Z,950.52
2016-04-06T11:09:07.095Z,950.53
2016-04-06T11:10:07.052Z,950.49
2016-04-06T11:11:07.008Z,950.49
2016-04-06T11:12:06.947Z,950.51
2016-04-06T11:13:06.889Z,950.49
2016-04-06T11:14:06.845Z,950.5
2016-04-06T11:15:06.784Z,950.48
2016-04-06T11:16:06.739Z,950.51
2016-04-06T11:17:06.695Z,950.52
2016-04-06T11:18:06.636Z,950.5
2016-04-06T11:19:06.591Z,950.43
2016-04-06T11:20:06.547Z,950.41
2016-04-06T11:21:06.581Z,950.46
2016-04-06T11:22:06.444Z,950.46
2016-04-06T11:23:06.383Z,950.43
2016-04-06T11:24:06.339Z,950.4
2016-04-06T11:25:06.296Z,950.32
2016-04-06T11:26:06.251Z,950.3
2016-04-06T11:27:06.191Z,950.26
2016-04-06T11:28:06.147Z,950.24
2016-04-06T11:29:06.087Z,950.3
2016-04-06T11:30:06.043Z,950.28
2016-04-06T11:31:05.998Z,950.27
2016-04-06T11:32:05.954Z,950.27
2016-04-06T11:33:05.926Z,950.24
2016-04-06T11:34:05.866Z,950.24
2016-04-06T11:35:05.791Z,950.23
2016-04-06T11:36:05.762Z,950.22
2016-04-06T11:37:05.703Z,950.19
2016-04-06T11:38:05.659Z,950.2
2016-04-06T11:39:05.598Z,950.21
2016-04-06T11:40:05.554Z,950.19
2016-04-06T11:41:05.494Z,950.21
2016-04-06T11:42:05.451Z,950.18
2016-04-06T11:43:05.406Z,950.18
2016-04-06T11:44:05.362Z,950.17
2016-04-06T11:45:05.302Z,950.13
2016-04-06T11:46:05.258Z,950.15
2016-04-06T11:47:05.198Z,950.18
2016-04-06T11:48:05.154Z,950.18
2016-04-06T11:49:05.110Z,950.16
2016-04-06T11:50:05.066Z,950.14
2016-04-06T11:51:05.022Z,950.15
2016-04-06T11:52:04.961Z,950.1
2016-04-06T11:53:04.917Z,950.14
2016-04-06T11:54:04.857Z,950.11
2016-04-06T11:55:04.813Z,950.11
2016-04-06T11:56:04.754Z,950.09
2016-04-06T11:57:04.710Z,950.14
2016-04-06T11:58:04.666Z,950.11
2016-04-06T11:59:04.605Z,950.09
2016-04-06T12:00:04.561Z,950.06
2016-04-06T12:01:04.517Z,950.09
2016-04-06T12:02:04.457Z,950.07
2016-04-06T12:03:04.413Z,950.06
2016-04-06T12:04:04.354Z,950.05
2016-04-06T12:05:04.309Z,950
2016-04-06T12:06:04.249Z,950.01
2016-04-06T12:07:04.220Z,950.01
2016-04-06T12:08:04.153Z,950
2016-04-06T12:09:04.108Z,950
2016-04-06T12:10:04.079Z,950.01
2016-04-06T12:11:04.019Z,949.98
2016-04-06T12:12:03.960Z,949.93
2016-04-06T12:13:03.916Z,949.92
2016-04-06T12:14:03.871Z,949.97
2016-04-06T12:15:03.827Z,949.94
2016-04-06T12:16:03.768Z,949.95
2016-04-06T12:17:03.723Z,949.88
2016-04-06T12:18:03.665Z,949.91
2016-04-06T12:19:03.621Z,949.89
2016-04-06T12:20:03.562Z,949.84
2016-04-06T12:21:03.533Z,949.8
2016-04-06T12:22:03.473Z,949.83
2016-04-06T12:23:03.428Z,949.81
2016-04-06T12:24:03.369Z,949.83
2016-04-06T12:25:03.325Z,949.82
2016-04-06T12:26:03.281Z,949.84
2016-04-06T12:27:03.220Z,949.82
2016-04-06T12:28:03.177Z,949.83
2016-04-06T12:29:03.116Z,949.77
2016-04-06T12:30:03.088Z,949.76
2016-04-06T12:31:03.028Z,949.74